createdAt,value
2017-08-20T00:00:45.921Z,1012.96
2017-08-20T00:01:58.551Z,1013.01
2017-08-20T00:03:10.919Z,1013
2017-08-20T00:04:22.896Z,1012.99
2017-08-20T00:05:35.200Z,1012.97
2017-08-20T00:06:47.475Z,1012.96
2017-08-20T00:07:59.698Z,1012.96
2017-08-20T00:09:12.301Z,1012.95
2017-08-20T00:10:24.944Z,1012.94
2017-08-20T00:11:37.509Z,1012.92
2017-08-20T00:12:49.828Z,1012.89
2017-08-20T00:14:02.441Z,1012.82
2017-08-20T00:15:14.698Z,1012.81
2017-08-20T00:16:27.297Z,1012.77
2017-08-20T00:17:39.589Z,1012.79
2017-08-20T00:18:51.907Z,1012.79
2017-08-20T00:20:04.173Z,1012.74
2017-08-20T00:21:16.445Z,1012.76
2017-08-20T00:22:29.045Z,1012.75
2017-08-20T00:23:41.312Z,1012.74
2017-08-20T00:24:53.301Z,1012.75
2017-08-20T00:26:05.651Z,1012.79
2017-08-20T00:27:17.986Z,1012.8
2017-08-20T00:28:30.574Z,1012.82
2017-08-20T00:29:42.838Z,1012.81
2017-08-20T00:30:54.802Z,1012.81
2017-08-20T00:32:07.096Z,1012.78
2017-08-20T00:33:19.736Z,1012.77
2017-08-20T00:34:32.381Z,1012.81
2017-08-20T00:35:45.007Z,1012.82
2017-08-20T00:36:57.270Z,1012.83
2017-08-20T00:38:09.883Z,1012.89
2017-08-20T00:39:22.156Z,1012.88
2017-08-20T00:40:34.753Z,1012.85
2017-08-20T00:41:46.781Z,1012.91
2017-08-20T00:42:59.077Z,1012.9
2017-08-20T00:44:11.709Z,1012.96
2017-08-20T00:45:24.282Z,1012.93
2017-08-20T00:46:36.259Z,1012.91
2017-08-20T00:47:48.310Z,1012.89
2017-08-20T00:49:00.936Z,1012.88
2017-08-20T00:50:13.496Z,1012.89
2017-08-20T00:51:26.091Z,1012.87
2017-08-20T00:52:38.435Z,1012.93
2017-08-20T00:53:50.126Z,1012.94
2017-08-20T00:55:02.695Z,1012.99
2017-08-20T00:56:14.947Z,1013.02
2017-08-20T00:57:27.536Z,1013.02
2017-08-20T00:58:40.085Z,1013.06
2017-08-20T00:59:52.304Z,1013.09
2017-08-20T01:01:04.992Z,1013.09
2017-08-20T01:02:17.238Z,1013.14
2017-08-20T01:03:29.816Z,1013.06
2017-08-20T01:04:42.088Z,1013.01
2017-08-20T01:05:54.697Z,1013.05
2017-08-20T01:07:06.987Z,1013.09
2017-08-20T01:08:19.598Z,1013.1
2017-08-20T01:09:32.181Z,1013.11
2017-08-20T01:10:44.802Z,1013.12
2017-08-20T01:11:57.337Z,1013.1
2017-08-20T01:13:09.834Z,1013.09
2017-08-20T01:14:22.455Z,1013.14
2017-08-20T01:15:35.022Z,1013.16
2017-08-20T01:16:47.571Z,1013.16
2017-08-20T01:17:59.518Z,1013.16
2017-08-20T01:19:11.536Z,1013.17
2017-08-20T01:20:23.816Z,1013.19
2017-08-20T01:21:36.078Z,1013.23
2017-08-20T01:22:48.313Z,1013.23
2017-08-20T01:24:00.885Z,1013.22
2017-08-20T01:25:13.139Z,1013.26
2017-08-20T01:26:25.685Z,1013.25
2017-08-20T01:27:38.265Z,1013.22
2017-08-20T01:28:50.818Z,1013.25
2017-08-20T01:30:03.418Z,1013.25
2017-08-20T01:31:15.448Z,1013.24
2017-08-20T01:32:28.098Z,1013.22
2017-08-20T01:33:40.709Z,1013.23
2017-08-20T01:34:53.315Z,1013.21
2017-08-20T01:36:05.906Z,1013.21
2017-08-20T01:37:17.906Z,1013.21
2017-08-20T01:38:30.517Z,1013.22
2017-08-20T01:39:43.022Z,1013.22
2017-08-20T01:40:55.606Z,1013.18
2017-08-20T01:42:07.883Z,1013.21
2017-08-20T01:43:20.472Z,1013.25
2017-08-20T01:44:33.036Z,1013.27
2017-08-20T01:45:45.363Z,1013.3
2017-08-20T01:46:57.959Z,1013.32
2017-08-20T01:48:10.520Z,1013.34
2017-08-20T01:49:23.163Z,1013.28
2017-08-20T01:50:35.138Z,1013.29
2017-08-20T01:51:47.742Z,1013.34
2017-08-20T01:52:59.962Z,1013.32
2017-08-20T01:54:12.590Z,1013.29
2017-08-20T01:55:25.395Z,1013.33
2017-08-20T01:56:37.648Z,1013.29
2017-08-20T01:57:49.944Z,1013.28
2017-08-20T01:59:02.027Z,1013.28
2017-08-20T02:00:14.602Z,1013.28
2017-08-20T02:01:27.240Z,1013.27
2017-08-20T02:02:39.802Z,1013.26
2017-08-20T02:03:52.376Z,1013.29
2017-08-20T02:05:04.960Z,1013.32
2017-08-20T02:06:17.537Z,1013.32
2017-08-20T02:07:30.135Z,1013.33
2017-08-20T02:08:42.117Z,1013.34
2017-08-20T02:09:54.125Z,1013.33
2017-08-20T02:11:06.708Z,1013.34
2017-08-20T02:12:19.324Z,1013.38
2017-08-20T02:13:31.324Z,1013.38
2017-08-20T02:14:43.608Z,1013.36
2017-08-20T02:15:55.864Z,1013.35
2017-08-20T02:17:08.111Z,1013.34
2017-08-20T02:18:20.757Z,1013.37
2017-08-20T02:19:33.380Z,1013.42
2017-08-20T02:20:45.688Z,1013.43
2017-08-20T02:21:58.340Z,1013.4
2017-08-20T02:23:10.688Z,1013.43
2017-08-20T02:24:23.241Z,1013.43
2017-08-20T02:25:35.795Z,1013.47
2017-08-20T02:26:48.358Z,1013.48
2017-08-20T02:28:00.968Z,1013.47
2017-08-20T02:29:13.531Z,1013.47
2017-08-20T02:30:25.846Z,1013.47
2017-08-20T02:31:38.101Z,1013.5
2017-08-20T02:32:50.422Z,1013.53
2017-08-20T02:34:02.750Z,1013.58
2017-08-20T02:35:15.062Z,1013.59
2017-08-20T02:36:27.323Z,1013.57
2017-08-20T02:37:39.252Z,1013.59
2017-08-20T02:38:51.820Z,1013.58
2017-08-20T02:40:04.379Z,1013.61
2017-08-20T02:41:16.987Z,1013.61
2017-08-20T02:42:29.538Z,1013.59
2017-08-20T02:43:41.460Z,1013.59
2017-08-20T02:44:53.429Z,1013.61
2017-08-20T02:46:05.395Z,1013.57
2017-08-20T02:47:17.622Z,1013.61
2017-08-20T02:48:29.567Z,1013.61
2017-08-20T02:49:41.819Z,1013.61
2017-08-20T02:50:54.158Z,1013.59
2017-08-20T02:52:06.750Z,1013.59
2017-08-20T02:53:19.345Z,1013.61
2017-08-20T02:54:31.014Z,1013.69
2017-08-20T02:55:42.985Z,1013.71
2017-08-20T02:56:55.258Z,1013.72
2017-08-20T02:58:07.787Z,1013.76
2017-08-20T02:59:19.779Z,1013.79
2017-08-20T03:00:32.344Z,1013.74
2017-08-20T03:01:44.921Z,1013.82
2017-08-20T03:02:57.535Z,1013.8
2017-08-20T03:04:10.181Z,1013.81
2017-08-20T03:05:22.769Z,1013.81
2017-08-20T03:06:35.321Z,1013.81
2017-08-20T03:07:47.623Z,1013.8
2017-08-20T03:08:59.915Z,1013.85
2017-08-20T03:10:12.557Z,1013.82
2017-08-20T03:11:25.171Z,1013.85
2017-08-20T03:12:37.724Z,1013.86
2017-08-20T03:13:49.720Z,1013.88
2017-08-20T03:15:02.292Z,1013.83
2017-08-20T03:16:14.545Z,1013.85
2017-08-20T03:17:27.160Z,1013.82
2017-08-20T03:18:39.452Z,1013.78
2017-08-20T03:19:51.724Z,1013.82
2017-08-20T03:21:03.631Z,1013.82
2017-08-20T03:22:16.241Z,1013.79
2017-08-20T03:23:28.810Z,1013.79
2017-08-20T03:24:40.812Z,1013.79
2017-08-20T03:25:53.104Z,1013.8
2017-08-20T03:27:05.384Z,1013.81
2017-08-20T03:28:18.036Z,1013.78
2017-08-20T03:29:30.569Z,1013.76
2017-08-20T03:30:43.140Z,1013.73
2017-08-20T03:31:55.682Z,1013.69
2017-08-20T03:33:07.638Z,1013.73
2017-08-20T03:34:20.253Z,1013.73
2017-08-20T03:35:32.791Z,1013.76
2017-08-20T03:36:45.369Z,1013.75
2017-08-20T03:37:57.673Z,1013.78
2017-08-20T03:39:09.629Z,1013.81
2017-08-20T03:40:21.899Z,1013.8
2017-08-20T03:41:34.202Z,1013.77
2017-08-20T03:42:46.739Z,1013.8
2017-08-20T03:43:59.336Z,1013.84
2017-08-20T03:45:11.908Z,1013.86
2017-08-20T03:46:24.483Z,1013.85
2017-08-20T03:47:37.059Z,1013.89
2017-08-20T03:48:49.750Z,1013.92
2017-08-20T03:50:02.565Z,1013.95
2017-08-20T03:51:14.553Z,1014.03
2017-08-20T03:52:27.106Z,1013.99
2017-08-20T03:53:39.338Z,1014.04
2017-08-20T03:54:51.673Z,1014.01
2017-08-20T03:56:04.247Z,1014.01
2017-08-20T03:57:16.530Z,1014.06
2017-08-20T03:58:28.759Z,1014
2017-08-20T03:59:41.360Z,1014.07
2017-08-20T04:00:53.678Z,1014.08
2017-08-20T04:02:06.263Z,1014.06
2017-08-20T04:03:18.516Z,1014.06
2017-08-20T04:04:31.091Z,1014.08
2017-08-20T04:05:43.394Z,1014.03
2017-08-20T04:06:55.696Z,1014.07
2017-08-20T04:08:07.985Z,1014.09
2017-08-20T04:09:20.592Z,1014.04
2017-08-20T04:10:32.528Z,1014.06
2017-08-20T04:11:44.892Z,1014.1
2017-08-20T04:12:57.514Z,1014.13
2017-08-20T04:14:10.077Z,1014.1
2017-08-20T04:15:22.628Z,1014.11
2017-08-20T04:16:35.155Z,1014.13
2017-08-20T04:17:47.763Z,1014.16
2017-08-20T04:19:00.050Z,1014.11
2017-08-20T04:20:12.637Z,1014.12
2017-08-20T04:21:25.284Z,1014.13
2017-08-20T04:22:37.583Z,1014.16
2017-08-20T04:23:49.623Z,1014.18
2017-08-20T04:25:01.949Z,1014.17
2017-08-20T04:26:14.258Z,1014.16
2017-08-20T04:27:26.815Z,1014.15
2017-08-20T04:28:39.467Z,1014.09
2017-08-20T04:29:51.794Z,1014.14
2017-08-20T04:31:04.028Z,1014.14
2017-08-20T04:32:16.649Z,1014.14
2017-08-20T04:33:29.458Z,1014.15
2017-08-20T04:34:41.755Z,1014.17
2017-08-20T04:35:54.372Z,1014.17
2017-08-20T04:37:06.361Z,1014.17
2017-08-20T04:38:18.864Z,1014.17
2017-08-20T04:39:31.183Z,1014.16
2017-08-20T04:40:43.455Z,1014.17
2017-08-20T04:41:55.778Z,1014.14
2017-08-20T04:43:08.074Z,1014.2
2017-08-20T04:44:20.418Z,1014.19
2017-08-20T04:45:32.663Z,1014.18
2017-08-20T04:46:44.938Z,1014.18
2017-08-20T04:47:57.155Z,1014.2
2017-08-20T04:49:10.002Z,1014.23
2017-08-20T04:50:22.332Z,1014.18
2017-08-20T04:51:34.004Z,1014.22
2017-08-20T04:52:46.561Z,1014.22
2017-08-20T04:53:58.519Z,1014.21
2017-08-20T04:55:11.098Z,1014.21
2017-08-20T04:56:23.650Z,1014.24
2017-08-20T04:57:35.645Z,1014.24
2017-08-20T04:58:48.233Z,1014.28
2017-08-20T05:00:00.773Z,1014.33
2017-08-20T05:01:13.085Z,1014.34
2017-08-20T05:02:25.443Z,1014.4
2017-08-20T05:03:38.015Z,1014.33
2017-08-20T05:04:50.267Z,1014.43
2017-08-20T05:06:02.851Z,1014.48
2017-08-20T05:07:15.446Z,1014.44
2017-08-20T05:08:28.037Z,1014.41
2017-08-20T05:09:40.601Z,1014.45
2017-08-20T05:10:53.197Z,1014.45
2017-08-20T05:12:05.818Z,1014.42
2017-08-20T05:13:18.088Z,1014.45
2017-08-20T05:14:30.358Z,1014.47
2017-08-20T05:15:42.616Z,1014.41
2017-08-20T05:16:54.976Z,1014.42
2017-08-20T05:18:07.497Z,1014.38
2017-08-20T05:19:19.701Z,1014.38
2017-08-20T05:20:32.010Z,1014.41
2017-08-20T05:21:44.532Z,1014.39
2017-08-20T05:22:56.543Z,1014.4
2017-08-20T05:24:08.872Z,1014.42
2017-08-20T05:25:21.158Z,1014.39
2017-08-20T05:26:33.733Z,1014.41
2017-08-20T05:27:45.412Z,1014.37
2017-08-20T05:28:57.985Z,1014.33
2017-08-20T05:30:10.309Z,1014.34
2017-08-20T05:31:22.922Z,1014.3
2017-08-20T05:32:35.573Z,1014.31
2017-08-20T05:33:47.565Z,1014.3
2017-08-20T05:35:00.110Z,1014.3
2017-08-20T05:36:12.673Z,1014.29
2017-08-20T05:37:24.982Z,1014.29
2017-08-20T05:38:37.295Z,1014.28
2017-08-20T05:39:49.571Z,1014.32
2017-08-20T05:41:01.850Z,1014.35
2017-08-20T05:42:14.408Z,1014.3
2017-08-20T05:43:26.964Z,1014.28
2017-08-20T05:44:39.279Z,1014.32
2017-08-20T05:45:51.595Z,1014.33
2017-08-20T05:47:03.893Z,1014.3
2017-08-20T05:48:16.465Z,1014.28
2017-08-20T05:49:28.984Z,1014.32
2017-08-20T05:50:41.020Z,1014.26
2017-08-20T05:51:53.585Z,1014.3
2017-08-20T05:53:05.868Z,1014.31
2017-08-20T05:54:18.176Z,1014.34
2017-08-20T05:55:30.778Z,1014.37
2017-08-20T05:56:43.066Z,1014.37
2017-08-20T05:57:55.420Z,1014.37
2017-08-20T05:59:07.673Z,1014.34
2017-08-20T06:00:19.623Z,1014.45
2017-08-20T06:01:32.219Z,1014.39
2017-08-20T06:02:44.260Z,1014.41
2017-08-20T06:03:56.181Z,1014.39
2017-08-20T06:05:08.421Z,1014.39
2017-08-20T06:06:20.689Z,1014.39
2017-08-20T06:07:33.282Z,1014.39
2017-08-20T06:08:45.888Z,1014.39
2017-08-20T06:09:58.537Z,1014.41
2017-08-20T06:11:11.115Z,1014.45
2017-08-20T06:12:23.725Z,1014.45
2017-08-20T06:13:35.953Z,1014.46
2017-08-20T06:14:48.503Z,1014.48
2017-08-20T06:16:00.444Z,1014.47
2017-08-20T06:17:13.068Z,1014.49
2017-08-20T06:18:25.695Z,1014.54
2017-08-20T06:19:37.999Z,1014.49
2017-08-20T06:20:50.605Z,1014.52
2017-08-20T06:22:03.246Z,1014.51
2017-08-20T06:23:15.215Z,1014.48
2017-08-20T06:24:27.838Z,1014.48
2017-08-20T06:25:40.127Z,1014.54
2017-08-20T06:26:52.446Z,1014.55
2017-08-20T06:28:05.074Z,1014.55
2017-08-20T06:29:17.340Z,1014.49
2017-08-20T06:30:29.915Z,1014.53
2017-08-20T06:31:41.932Z,1014.53
2017-08-20T06:32:53.950Z,1014.47
2017-08-20T06:34:06.197Z,1014.55
2017-08-20T06:35:18.766Z,1014.54
2017-08-20T06:36:30.774Z,1014.55
2017-08-20T06:37:43.311Z,1014.58
2017-08-20T06:38:55.901Z,1014.61
2017-08-20T06:40:07.909Z,1014.63
2017-08-20T06:41:20.506Z,1014.65
2017-08-20T06:42:32.522Z,1014.69
2017-08-20T06:43:45.086Z,1014.65
2017-08-20T06:44:57.363Z,1014.67
2017-08-20T06:46:09.919Z,1014.62
2017-08-20T06:47:22.559Z,1014.64
2017-08-20T06:48:35.180Z,1014.64
2017-08-20T06:49:47.826Z,1014.59
2017-08-20T06:51:00.453Z,1014.57
2017-08-20T06:52:13.060Z,1014.61
2017-08-20T06:53:25.669Z,1014.61
2017-08-20T06:54:38.246Z,1014.56
2017-08-20T06:55:50.551Z,1014.55
2017-08-20T06:57:02.866Z,1014.59
2017-08-20T06:58:15.160Z,1014.56
2017-08-20T06:59:27.705Z,1014.63
2017-08-20T07:00:39.975Z,1014.64
2017-08-20T07:01:52.496Z,1014.65
2017-08-20T07:03:04.847Z,1014.7
2017-08-20T07:04:17.470Z,1014.69
2017-08-20T07:05:30.361Z,1014.68
2017-08-20T07:06:42.354Z,1014.68
2017-08-20T07:07:54.985Z,1014.67
2017-08-20T07:09:07.594Z,1014.66
2017-08-20T07:10:19.926Z,1014.66
2017-08-20T07:11:32.547Z,1014.66
2017-08-20T07:12:45.174Z,1014.63
2017-08-20T07:13:57.131Z,1014.64
2017-08-20T07:15:09.380Z,1014.67
2017-08-20T07:16:21.960Z,1014.65
2017-08-20T07:17:34.215Z,1014.67
2017-08-20T07:18:46.826Z,1014.64
2017-08-20T07:19:59.109Z,1014.63
2017-08-20T07:21:11.705Z,1014.65
2017-08-20T07:22:24.300Z,1014.61
2017-08-20T07:23:36.626Z,1014.64
2017-08-20T07:24:48.967Z,1014.62
2017-08-20T07:26:01.600Z,1014.58
2017-08-20T07:27:14.218Z,1014.6
2017-08-20T07:28:26.800Z,1014.57
2017-08-20T07:29:39.352Z,1014.65
2017-08-20T07:30:51.340Z,1014.61
2017-08-20T07:32:03.890Z,1014.63
2017-08-20T07:33:16.459Z,1014.66
2017-08-20T07:34:29.103Z,1014.63
2017-08-20T07:35:41.401Z,1014.66
2017-08-20T07:36:54.088Z,1014.63
2017-08-20T07:38:06.390Z,1014.57
2017-08-20T07:39:18.735Z,1014.56
2017-08-20T07:40:31.274Z,1014.57
2017-08-20T07:41:43.577Z,1014.56
2017-08-20T07:42:55.515Z,1014.61
2017-08-20T07:44:08.122Z,1014.59
2017-08-20T07:45:20.738Z,1014.62
2017-08-20T07:46:33.314Z,1014.58
2017-08-20T07:47:45.896Z,1014.55
2017-08-20T07:48:58.159Z,1014.59
2017-08-20T07:50:10.378Z,1014.63
2017-08-20T07:51:22.691Z,1014.59
2017-08-20T07:52:34.644Z,1014.56
2017-08-20T07:53:47.251Z,1014.57
2017-08-20T07:54:59.565Z,1014.62
2017-08-20T07:56:12.217Z,1014.63
2017-08-20T07:57:24.526Z,1014.64
2017-08-20T07:58:36.855Z,1014.69
2017-08-20T07:59:49.167Z,1014.7
2017-08-20T08:01:01.399Z,1014.74
2017-08-20T08:02:14.019Z,1014.79
2017-08-20T08:03:26.316Z,1014.8
2017-08-20T08:04:38.905Z,1014.82
2017-08-20T08:05:50.944Z,1014.84
2017-08-20T08:07:03.575Z,1014.87
2017-08-20T08:08:15.908Z,1014.91
2017-08-20T08:09:28.469Z,1014.86
2017-08-20T08:10:41.095Z,1014.83
2017-08-20T08:11:52.847Z,1014.79
2017-08-20T08:13:05.455Z,1014.74
2017-08-20T08:14:17.841Z,1014.74
2017-08-20T08:15:30.448Z,1014.69
2017-08-20T08:16:42.717Z,1014.73
2017-08-20T08:17:55.033Z,1014.71
2017-08-20T08:19:07.665Z,1014.87
2017-08-20T08:20:19.966Z,1014.82
2017-08-20T08:21:32.273Z,1014.83
2017-08-20T08:22:44.628Z,1014.83
2017-08-20T08:23:56.597Z,1014.8
2017-08-20T08:25:08.881Z,1014.79
2017-08-20T08:26:21.168Z,1014.79
2017-08-20T08:27:33.439Z,1014.69
2017-08-20T08:28:46.085Z,1014.63
2017-08-20T08:29:58.365Z,1014.68
2017-08-20T08:31:10.689Z,1014.66
2017-08-20T08:32:22.972Z,1014.68
2017-08-20T08:33:35.553Z,1014.67
2017-08-20T08:34:48.160Z,1014.66
2017-08-20T08:36:00.503Z,1014.71
2017-08-20T08:37:13.130Z,1014.71
2017-08-20T08:38:25.758Z,1014.67
2017-08-20T08:39:38.354Z,1014.75
2017-08-20T08:40:50.964Z,1014.79
2017-08-20T08:42:03.570Z,1014.72
2017-08-20T08:43:16.468Z,1014.68
2017-08-20T08:44:28.503Z,1014.62
2017-08-20T08:45:41.095Z,1014.71
2017-08-20T08:46:53.394Z,1014.71
2017-08-20T08:48:05.718Z,1014.81
2017-08-20T08:49:18.344Z,1014.86
2017-08-20T08:50:30.935Z,1014.82
2017-08-20T08:51:43.560Z,1014.73
2017-08-20T08:52:56.182Z,1014.74
2017-08-20T08:54:08.450Z,1014.71
2017-08-20T08:55:20.796Z,1014.67
2017-08-20T08:56:33.146Z,1014.69
2017-08-20T08:57:45.103Z,1014.76
2017-08-20T08:58:57.629Z,1014.76
2017-08-20T09:00:10.248Z,1014.77
2017-08-20T09:01:22.542Z,1014.76
2017-08-20T09:02:34.560Z,1014.79
2017-08-20T09:03:46.856Z,1014.73
2017-08-20T09:04:59.456Z,1014.73
2017-08-20T09:06:11.763Z,1014.82
2017-08-20T09:07:23.734Z,1014.8
2017-08-20T09:08:36.090Z,1014.83
2017-08-20T09:09:48.688Z,1014.79
2017-08-20T09:11:01.253Z,1014.8
2017-08-20T09:12:13.824Z,1014.84
2017-08-20T09:13:25.847Z,1014.9
2017-08-20T09:14:38.214Z,1014.97
2017-08-20T09:15:50.815Z,1014.81
2017-08-20T09:17:03.506Z,1014.64
2017-08-20T09:18:15.764Z,1014.59
2017-08-20T09:19:28.061Z,1014.6
2017-08-20T09:20:39.755Z,1014.59
2017-08-20T09:21:52.342Z,1014.55
2017-08-20T09:23:04.965Z,1014.61
2017-08-20T09:24:17.158Z,1014.66
2017-08-20T09:25:29.756Z,1014.67
2017-08-20T09:26:42.307Z,1014.71
2017-08-20T09:27:54.017Z,1014.69
2017-08-20T09:29:06.316Z,1014.65
2017-08-20T09:30:18.863Z,1014.63
2017-08-20T09:31:31.455Z,1014.61
2017-08-20T09:32:43.710Z,1014.66
2017-08-20T09:33:56.044Z,1014.66
2017-08-20T09:35:08.402Z,1014.69
2017-08-20T09:36:21.105Z,1014.75
2017-08-20T09:37:33.658Z,1014.81
2017-08-20T09:38:45.580Z,1014.79
2017-08-20T09:39:57.901Z,1014.83
2017-08-20T09:41:10.446Z,1014.8
2017-08-20T09:42:23.018Z,1014.83
2017-08-20T09:43:35.345Z,1014.88
2017-08-20T09:44:47.937Z,1014.87
2017-08-20T09:45:59.677Z,1014.89
2017-08-20T09:47:11.899Z,1014.94
2017-08-20T09:48:24.175Z,1014.87
2017-08-20T09:49:36.740Z,1014.76
2017-08-20T09:50:48.699Z,1014.72
2017-08-20T09:52:00.983Z,1014.64
2017-08-20T09:53:12.926Z,1014.66
2017-08-20T09:54:25.252Z,1014.69
2017-08-20T09:55:37.535Z,1014.73
2017-08-20T09:56:50.121Z,1014.76
2017-08-20T09:58:02.751Z,1014.69
2017-08-20T09:59:15.010Z,1014.78
2017-08-20T10:00:27.607Z,1014.84
2017-08-20T10:01:39.839Z,1014.93
2017-08-20T10:02:51.816Z,1014.99
2017-08-20T10:04:04.454Z,1014.91
2017-08-20T10:05:16.733Z,1014.86
2017-08-20T10:06:29.026Z,1014.84
2017-08-20T10:07:41.674Z,1014.84
2017-08-20T10:08:54.319Z,1014.83
2017-08-20T10:10:06.896Z,1014.77
2017-08-20T10:11:18.842Z,1014.82
2017-08-20T10:12:31.107Z,1014.77
2017-08-20T10:13:43.039Z,1014.75
2017-08-20T10:14:55.697Z,1014.67
2017-08-20T10:16:08.330Z,1014.62
2017-08-20T10:17:20.920Z,1014.69
2017-08-20T10:18:33.484Z,1014.8
2017-08-20T10:19:46.056Z,1014.81
2017-08-20T10:20:58.618Z,1014.85
2017-08-20T10:22:10.911Z,1014.86
2017-08-20T10:23:23.166Z,1014.87
2017-08-20T10:24:35.412Z,1014.88
2017-08-20T10:25:47.715Z,1014.91
2017-08-20T10:27:00.382Z,1014.94
2017-08-20T10:28:13.035Z,1014.99
2017-08-20T10:29:25.002Z,1015.04
2017-08-20T10:30:37.008Z,1015.06
2017-08-20T10:31:49.562Z,1015.01
2017-08-20T10:33:01.874Z,1015.05
2017-08-20T10:34:14.406Z,1015.06
2017-08-20T10:35:26.458Z,1015.05
2017-08-20T10:36:39.106Z,1014.99
2017-08-20T10:37:51.723Z,1015.01
2017-08-20T10:39:04.069Z,1015.04
2017-08-20T10:40:16.664Z,1015.13
2017-08-20T10:41:28.686Z,1015.08
2017-08-20T10:42:40.983Z,1014.99
2017-08-20T10:43:53.292Z,1014.96
2017-08-20T10:45:05.592Z,1014.87
2017-08-20T10:46:18.159Z,1014.96
2017-08-20T10:47:30.454Z,1014.84
2017-08-20T10:48:42.467Z,1014.76
2017-08-20T10:49:54.150Z,1014.84
2017-08-20T10:51:06.446Z,1014.97
2017-08-20T10:52:19.080Z,1015.06
2017-08-20T10:53:31.334Z,1015.07
2017-08-20T10:54:43.682Z,1014.99
2017-08-20T10:55:56.352Z,1014.97
2017-08-20T10:57:08.636Z,1014.93
2017-08-20T10:58:20.903Z,1014.83
2017-08-20T10:59:32.937Z,1014.78
2017-08-20T11:00:45.234Z,1014.77
2017-08-20T11:01:57.514Z,1014.79
2017-08-20T11:03:09.764Z,1014.76
2017-08-20T11:04:22.067Z,1014.71
2017-08-20T11:05:34.704Z,1014.69
2017-08-20T11:06:47.272Z,1014.68
2017-08-20T11:07:59.913Z,1014.71
2017-08-20T11:09:12.169Z,1014.71
2017-08-20T11:10:24.433Z,1014.81
2017-08-20T11:11:37.028Z,1014.78
2017-08-20T11:12:49.744Z,1014.82
2017-08-20T11:14:02.013Z,1014.89
2017-08-20T11:15:13.683Z,1014.89
2017-08-20T11:16:26.240Z,1014.91
2017-08-20T11:17:38.586Z,1015.01
2017-08-20T11:18:50.909Z,1015.02
2017-08-20T11:20:03.723Z,1015.06
2017-08-20T11:21:16.038Z,1015.08
2017-08-20T11:22:28.612Z,1015.04
2017-08-20T11:23:40.888Z,1015.05
2017-08-20T11:24:53.502Z,1015.04
2017-08-20T11:26:05.515Z,1015.07
2017-08-20T11:27:17.839Z,1015.05
2017-08-20T11:28:29.797Z,1015.09
2017-08-20T11:29:42.078Z,1015.16
2017-08-20T11:30:54.722Z,1015.06
2017-08-20T11:32:06.974Z,1014.93
2017-08-20T11:33:19.276Z,1014.84
2017-08-20T11:34:31.619Z,1014.83
2017-08-20T11:35:43.280Z,1014.79
2017-08-20T11:36:55.549Z,1014.66
2017-08-20T11:38:07.572Z,1014.59
2017-08-20T11:39:19.848Z,1014.55
2017-08-20T11:40:32.130Z,1014.55
2017-08-20T11:41:44.726Z,1014.53
2017-08-20T11:42:57.373Z,1014.53
2017-08-20T11:44:09.612Z,1014.63
2017-08-20T11:45:21.620Z,1014.76
2017-08-20T11:46:33.858Z,1014.76
2017-08-20T11:47:46.135Z,1014.79
2017-08-20T11:48:58.457Z,1014.66
2017-08-20T11:50:11.066Z,1014.63
2017-08-20T11:51:23.116Z,1014.6
2017-08-20T11:52:35.758Z,1014.6
2017-08-20T11:53:47.766Z,1014.49
2017-08-20T11:55:00.122Z,1014.41
2017-08-20T11:56:12.462Z,1014.46
2017-08-20T11:57:25.165Z,1014.48
2017-08-20T11:58:37.453Z,1014.44
2017-08-20T11:59:49.724Z,1014.37
2017-08-20T12:01:01.712Z,1014.36
2017-08-20T12:02:14.045Z,1014.36
2017-08-20T12:03:26.361Z,1014.32
2017-08-20T12:04:38.604Z,1014.46
2017-08-20T12:05:50.933Z,1014.51
2017-08-20T12:07:02.918Z,1014.47
2017-08-20T12:08:14.890Z,1014.43
2017-08-20T12:09:27.176Z,1014.45
2017-08-20T12:10:39.474Z,1014.49
2017-08-20T12:11:51.484Z,1014.45
2017-08-20T12:13:03.719Z,1014.45
2017-08-20T12:14:16.294Z,1014.51
2017-08-20T12:15:28.873Z,1014.62
2017-08-20T12:16:41.457Z,1014.54
2017-08-20T12:17:53.795Z,1014.44
2017-08-20T12:19:06.059Z,1014.46
2017-08-20T12:20:18.023Z,1014.36
2017-08-20T12:21:30.339Z,1014.42
2017-08-20T12:22:42.639Z,1014.53
2017-08-20T12:23:55.305Z,1014.58
2017-08-20T12:25:07.303Z,1014.54
2017-08-20T12:26:19.273Z,1014.53
2017-08-20T12:27:31.845Z,1014.43
2017-08-20T12:28:44.113Z,1014.46
2017-08-20T12:29:56.792Z,1014.33
2017-08-20T12:31:09.154Z,1014.37
2017-08-20T12:32:21.368Z,1014.45
2017-08-20T12:33:33.381Z,1014.41
2017-08-20T12:34:45.380Z,1014.43
2017-08-20T12:35:57.699Z,1014.38
2017-08-20T12:37:09.664Z,1014.39
2017-08-20T12:38:21.904Z,1014.4
2017-08-20T12:39:33.601Z,1014.41
2017-08-20T12:40:45.907Z,1014.41
2017-08-20T12:41:58.197Z,1014.52
2017-08-20T12:43:10.523Z,1014.57
2017-08-20T12:44:23.135Z,1014.55
2017-08-20T12:45:35.495Z,1014.55
2017-08-20T12:46:48.073Z,1014.54
2017-08-20T12:48:00.362Z,1014.56
2017-08-20T12:49:12.657Z,1014.65
2017-08-20T12:50:24.669Z,1014.56
2017-08-20T12:51:37.325Z,1014.71
2017-08-20T12:52:49.877Z,1014.82
2017-08-20T12:54:02.446Z,1014.53
2017-08-20T12:55:14.725Z,1014.41
2017-08-20T12:56:27.038Z,1014.48
2017-08-20T12:57:39.876Z,1014.52
2017-08-20T12:58:52.211Z,1014.46
2017-08-20T13:00:04.807Z,1014.47
2017-08-20T13:01:17.120Z,1014.35
2017-08-20T13:02:29.777Z,1014.45
2017-08-20T13:03:41.750Z,1014.47
2017-08-20T13:04:54.032Z,1014.58
2017-08-20T13:06:06.339Z,1014.47
2017-08-20T13:07:18.949Z,1014.51
2017-08-20T13:08:31.596Z,1014.47
2017-08-20T13:09:44.233Z,1014.67
2017-08-20T13:10:56.504Z,1014.63
2017-08-20T13:12:09.143Z,1014.5
2017-08-20T13:13:21.744Z,1014.38
2017-08-20T13:14:34.090Z,1014.33
2017-08-20T13:15:45.797Z,1014.29
2017-08-20T13:16:57.840Z,1014.31
2017-08-20T13:18:10.460Z,1014.31
2017-08-20T13:19:22.454Z,1014.33
2017-08-20T13:20:34.785Z,1014.32
2017-08-20T13:21:47.478Z,1014.3
2017-08-20T13:23:00.003Z,1014.3
2017-08-20T13:24:11.989Z,1014.26
2017-08-20T13:25:24.615Z,1014.26
2017-08-20T13:26:36.958Z,1014.27
2017-08-20T13:27:49.600Z,1014.27
2017-08-20T13:29:01.338Z,1014.23
2017-08-20T13:30:13.282Z,1014.24
2017-08-20T13:31:25.324Z,1014.27
2017-08-20T13:32:37.668Z,1014.25
2017-08-20T13:33:49.935Z,1014.27
2017-08-20T13:35:02.298Z,1014.25
2017-08-20T13:36:14.599Z,1014.33
2017-08-20T13:37:26.940Z,1014.36
2017-08-20T13:38:39.550Z,1014.32
2017-08-20T13:39:51.589Z,1014.28
2017-08-20T13:41:04.189Z,1014.23
2017-08-20T13:42:16.798Z,1014.36
2017-08-20T13:43:29.418Z,1014.32
2017-08-20T13:44:42.070Z,1014.29
2017-08-20T13:45:54.021Z,1014.23
2017-08-20T13:47:06.715Z,1014.36
2017-08-20T13:48:19.002Z,1014.33
2017-08-20T13:49:31.247Z,1014.23
2017-08-20T13:50:43.186Z,1014.29
2017-08-20T13:51:55.750Z,1014.3
2017-08-20T13:53:08.364Z,1014.32
2017-08-20T13:54:20.057Z,1014.31
2017-08-20T13:55:32.352Z,1014.24
2017-08-20T13:56:44.362Z,1014.26
2017-08-20T13:57:56.969Z,1014.32
2017-08-20T13:59:09.562Z,1014.25
2017-08-20T14:00:22.096Z,1014.26
2017-08-20T14:01:34.689Z,1014.29
2017-08-20T14:02:47.335Z,1014.3
2017-08-20T14:03:59.945Z,1014.26
2017-08-20T14:05:12.221Z,1014.22
2017-08-20T14:06:24.447Z,1014.19
2017-08-20T14:07:37.098Z,1014.2
2017-08-20T14:08:49.688Z,1014.19
2017-08-20T14:10:01.708Z,1014.2
2017-08-20T14:11:14.244Z,1014.19
2017-08-20T14:12:26.768Z,1014.14
2017-08-20T14:13:38.767Z,1014.12
2017-08-20T14:14:51.031Z,1014.14
2017-08-20T14:16:03.313Z,1014.17
2017-08-20T14:17:15.821Z,1014.13
2017-08-20T14:18:28.141Z,1014.18
2017-08-20T14:19:39.849Z,1014.17
2017-08-20T14:20:52.145Z,1014.14
2017-08-20T14:22:04.704Z,1014.16
2017-08-20T14:23:16.982Z,1014.22
2017-08-20T14:24:28.971Z,1014.17
2017-08-20T14:25:41.266Z,1014.22
2017-08-20T14:26:53.518Z,1014.23
2017-08-20T14:28:05.801Z,1014.23
2017-08-20T14:29:18.433Z,1014.19
2017-08-20T14:30:31.052Z,1014.24
2017-08-20T14:31:43.668Z,1014.21
2017-08-20T14:32:55.941Z,1014.23
2017-08-20T14:34:08.535Z,1014.27
2017-08-20T14:35:21.113Z,1014.24
2017-08-20T14:36:33.428Z,1014.26
2017-08-20T14:37:46.009Z,1014.26